Aérodrome :
LOGIN :

S'inscrire | Disclaimer

   EN    FR    IT 

 










Légende :    VFR   VFR Marginal   IFR   IFR Intensif   IFR Très Intensif
Visi : 
Plafond : 
>= 8 km
>= 3000ft
5 à 8 km
1000 à 3000 ft
1500m à 5 km
500 à 1000 ft
800 à 1500m
200 à 500 ft
< 800m
< 200 ft
Symboles :   Orages  Brouillard  Fortes neiges  Fortes précipitations  Vent > 20 kt
SIGMETs :   Divers  Orages  Givrage  Turbulence  Onde Orograph.  Cendres Volcan.






- Altitude de l'aérodrome : 529 ft
- Code IATA : CHR


LFLX - Chateauroux

DERNIER METAR :
  • 300000Z AUTO 25011KT 5000 DZ BR OVC004 15/15 Q1011 TEMPO NSW

METARs EXPIRÉS :
  • 292330Z AUTO 24011KT 4200 -DZ BR OVC005 15/15 Q1011 NOSIG
  • 292300Z AUTO 24013KT 4800 -RA BR OVC004 15/15 Q1012 BECMG 9999 NSW BKN007
  • 292230Z AUTO 24012KT 4400 -DZ BR OVC004 15/15 Q1012 BECMG 9999 NSW BKN007
  • 292200Z AUTO 24014KT 4100 -RADZ BR BKN004 OVC009 15/15 Q1012 BECMG 9999 NSW BKN007
  • 292130Z AUTO 24012KT 9000 -DZ OVC006 16/15 Q1012 TEMPO 2500 -RADZ BKN004
  • 292100Z AUTO 23013KT 4200 BR BKN005 OVC009 16/15 Q1013 TEMPO 2500 -RADZ
  • 292030Z AUTO 24014KT 9999 -DZ OVC006 16/15 Q1013 TEMPO 2500 -RADZ BKN004
  • 292000Z AUTO 23013KT 4900 -DZ BR BKN005 OVC009 16/16 Q1012 TEMPO 2500 -RADZ
  • 291930Z AUTO 23013KT 8000 2900 OVC006 16/16 Q1012 TEMPO 2500 -RADZ BKN004

TAF TAF LFLX
Valide du 30 à 00h jusqu'au 31 à 06h UTC


292300Z 3000/3106 24012KT 9999 BKN006
PROB40
TEMPO 3000/3002 4500 -RA BKN004
BECMG 3002/3004 30007KT BKN010
PROB30 3003/3007 SCT012 BKN040
BECMG 3007/3009 BKN020
BECMG 3009/3011 SCT030
TEMPO 3011/3020 29013G23KT 4000 -SHRA BKN035TCU
PROB40
TEMPO 3013/3016 29015G33KT 2000 SHRA BKN035CB
PROB40 3102/3106 BKN011
PROB30
TEMPO 3103/3106 4000 BR BKN007



MET'MAP, la Météo Aéronautique d'un coup d'oeil ! - Copyright ORBIFLY Décembre 2007 - Disclaimer

ORBIFLY MET'MAP TEAM :

Programmation & Développement : Alexandra Zaïnal
Sur une idée originale de : Baudouin d'Aumeries
Soutien technique & logistique : Manuel Goepfert
Assistance : Marc-Olivier Méhu




SOURCES & CREDITS :

   NOAA